createdAt,value
2019-02-28T00:02:14.512Z,98410.34
2019-02-28T00:04:42.781Z,98414.23
2019-02-28T00:07:11.112Z,98416.59
2019-02-28T00:09:39.335Z,98405.98
2019-02-28T00:12:13.193Z,98404.38
2019-02-28T00:14:38.271Z,98401.91
2019-02-28T00:17:09.168Z,98401.33
2019-02-28T00:19:36.570Z,98402.25
2019-02-28T00:22:04.862Z,98393.36
2019-02-28T00:24:33.138Z,98382.19
2019-02-28T00:27:01.414Z,98386.22
2019-02-28T00:29:33.450Z,98381.39
2019-02-28T00:31:59.680Z,98375.59
2019-02-28T00:34:27.969Z,98371.41
2019-02-28T00:36:56.262Z,98360.53
2019-02-28T00:39:24.522Z,98362.47
2019-02-28T00:41:52.811Z,98361.00
2019-02-28T00:44:21.070Z,98350.03
2019-02-28T00:46:49.357Z,98347.70
2019-02-28T00:49:17.643Z,98354.61
2019-02-28T00:51:45.958Z,98346.91
2019-02-28T00:54:14.210Z,98347.55
2019-02-28T00:56:42.472Z,98329.50
2019-02-28T00:59:10.738Z,98326.97
2019-02-28T01:01:39.011Z,98319.35
2019-02-28T01:04:07.294Z,98309.02
2019-02-28T01:06:35.547Z,98303.63
2019-02-28T01:09:04.794Z,98308.81
2019-02-28T01:11:33.051Z,98297.48
2019-02-28T01:14:02.346Z,98298.23
2019-02-28T01:16:30.751Z,98289.08
2019-02-28T01:18:59.035Z,98281.91
2019-02-28T01:21:27.286Z,98276.25
2019-02-28T01:23:55.568Z,98268.18
2019-02-28T01:26:23.856Z,98269.72
2019-02-28T01:28:52.169Z,98274.45
2019-02-28T01:31:20.455Z,98266.64
2019-02-28T01:33:48.721Z,98257.36
2019-02-28T01:36:16.980Z,98252.07
2019-02-28T01:38:45.279Z,98251.30
2019-02-28T01:41:13.551Z,98242.52
2019-02-28T01:43:41.825Z,98238.28
2019-02-28T01:46:10.074Z,98239.69
2019-02-28T01:48:38.483Z,98233.89
2019-02-28T01:51:06.737Z,98228.62
2019-02-28T01:53:34.991Z,98221.34
2019-02-28T01:56:03.319Z,98222.30
2019-02-28T01:58:31.536Z,98215.93
2019-02-28T02:00:59.822Z,98206.52
2019-02-28T02:03:28.073Z,98213.45
2019-02-28T02:05:56.360Z,98195.13
2019-02-28T02:08:24.628Z,98179.06
2019-02-28T02:10:56.003Z,98173.38
2019-02-28T02:13:22.897Z,98175.34
2019-02-28T02:15:52.004Z,98174.61
2019-02-28T02:18:20.407Z,98162.98
2019-02-28T02:20:48.660Z,98162.80
2019-02-28T02:23:18.105Z,98154.91
2019-02-28T02:25:46.916Z,98154.86
2019-02-28T02:28:15.202Z,98147.70
2019-02-28T02:30:50.477Z,98140.95
2019-02-28T02:33:14.425Z,98142.84
2019-02-28T02:35:43.658Z,98140.70
2019-02-28T02:38:11.900Z,98133.98
2019-02-28T02:40:40.183Z,98142.47
2019-02-28T02:43:08.488Z,98133.81
2019-02-28T02:45:41.677Z,98133.86
2019-02-28T02:48:06.950Z,98107.58
2019-02-28T02:50:36.115Z,98108.11
2019-02-28T02:53:05.549Z,98110.75
2019-02-28T02:55:34.383Z,98103.36
2019-02-28T02:58:02.680Z,98093.33
2019-02-28T03:00:30.929Z,98096.59
2019-02-28T03:02:59.216Z,98084.09
2019-02-28T03:05:34.948Z,98073.79
2019-02-28T03:08:00.086Z,98067.37
2019-02-28T03:10:27.462Z,98062.74
2019-02-28T03:12:55.718Z,98051.52
2019-02-28T03:15:26.964Z,98065.08
2019-02-28T03:17:53.991Z,98054.16
2019-02-28T03:20:22.286Z,98053.75
2019-02-28T03:22:50.543Z,98051.94
2019-02-28T03:25:18.851Z,98050.91
2019-02-28T03:27:47.080Z,98061.78
2019-02-28T03:30:29.238Z,98061.38
2019-02-28T03:32:51.346Z,98053.50
2019-02-28T03:35:19.661Z,98050.53
2019-02-28T03:37:47.874Z,98047.82
2019-02-28T03:40:16.193Z,98033.94
2019-02-28T03:42:44.453Z,98037.87
2019-02-28T03:45:14.543Z,98036.66
2019-02-28T03:47:42.821Z,98033.08
2019-02-28T03:50:11.616Z,98038.52
2019-02-28T03:52:43.759Z,98033.04
2019-02-28T03:55:11.524Z,98036.35
2019-02-28T03:57:39.783Z,98033.20
2019-02-28T04:00:20.071Z,98029.45
2019-02-28T04:02:48.324Z,98027.81
2019-02-28T04:05:16.624Z,98022.69
2019-02-28T04:07:52.981Z,98016.56
2019-02-28T04:10:16.763Z,98008.98
2019-02-28T04:12:46.859Z,98002.35
2019-02-28T04:15:19.497Z,98001.92
2019-02-28T04:17:47.759Z,98002.38
2019-02-28T04:20:16.027Z,97991.33
2019-02-28T04:22:44.287Z,97996.05
2019-02-28T04:25:12.568Z,97982.98
2019-02-28T04:27:41.794Z,97983.84
2019-02-28T04:30:14.370Z,97975.47
2019-02-28T04:32:42.627Z,97976.95
2019-02-28T04:35:11.037Z,97964.36
2019-02-28T04:37:44.881Z,97980.92
2019-02-28T04:40:12.983Z,97966.73
2019-02-28T04:42:41.252Z,97969.01
2019-02-28T04:45:13.866Z,97961.92
2019-02-28T04:47:42.239Z,97967.88
2019-02-28T04:50:11.774Z,97953.09
2019-02-28T04:52:40.015Z,97947.91
2019-02-28T04:55:09.048Z,97940.96
2019-02-28T04:57:37.299Z,97921.45
2019-02-28T05:00:08.958Z,97928.13
2019-02-28T05:02:37.222Z,97907.20
2019-02-28T05:05:05.472Z,97908.05
2019-02-28T05:07:34.104Z,97916.09
2019-02-28T05:10:02.372Z,97917.63
2019-02-28T05:12:30.661Z,97907.68
2019-02-28T05:15:02.244Z,97909.45
2019-02-28T05:17:28.959Z,97905.50
2019-02-28T05:19:57.212Z,97909.38
2019-02-28T05:22:27.565Z,97905.61
2019-02-28T05:24:55.500Z,97897.61
2019-02-28T05:27:24.518Z,97882.00
2019-02-28T05:29:52.914Z,97884.95
2019-02-28T05:32:21.167Z,97875.20
2019-02-28T05:34:51.064Z,97870.73
2019-02-28T05:37:19.638Z,97866.59
2019-02-28T05:43:36.587Z,97863.21
2019-02-28T05:46:04.839Z,97847.16
2019-02-28T05:48:35.335Z,97841.63
2019-02-28T05:51:03.100Z,97841.05
2019-02-28T05:53:31.365Z,97830.05
2019-02-28T05:55:59.990Z,97838.13
2019-02-28T05:58:28.388Z,97831.34
2019-02-28T06:00:56.655Z,97824.69
2019-02-28T06:03:24.919Z,97833.34
2019-02-28T06:05:53.187Z,97827.88
2019-02-28T06:08:21.508Z,97824.63
2019-02-28T06:10:49.745Z,97828.70
2019-02-28T06:13:18.418Z,97829.67
2019-02-28T06:15:47.172Z,97830.98
2019-02-28T06:18:15.427Z,97841.36
2019-02-28T06:20:43.695Z,97826.94
2019-02-28T06:23:11.978Z,97836.37
2019-02-28T06:25:40.242Z,97823.87
2019-02-28T06:28:08.501Z,97827.41
2019-02-28T06:30:36.761Z,97812.61
2019-02-28T06:33:05.066Z,97808.99
2019-02-28T06:35:33.406Z,97804.91
2019-02-28T06:38:01.665Z,97806.50
2019-02-28T06:40:32.593Z,97795.07
2019-02-28T06:54:21.421Z,97774.68
2019-02-28T06:56:49.675Z,97770.75
2019-02-28T06:59:17.932Z,97771.32
2019-02-28T07:01:46.218Z,97764.27
2019-02-28T07:04:15.269Z,97773.27
2019-02-28T07:06:43.575Z,97758.08
2019-02-28T07:09:11.817Z,97763.59
2019-02-28T07:11:40.101Z,97762.72
2019-02-28T07:14:12.924Z,97755.41
2019-02-28T07:16:38.396Z,97754.73
2019-02-28T07:19:06.646Z,97745.52
2019-02-28T07:21:34.943Z,97755.65
2019-02-28T07:24:03.794Z,97761.05
2019-02-28T07:26:32.131Z,97754.50
2019-02-28T07:29:00.384Z,97746.70
2019-02-28T07:31:28.668Z,97748.77
2019-02-28T07:33:56.929Z,97740.72
2019-02-28T07:36:25.203Z,97732.05
2019-02-28T07:38:53.470Z,97734.00
2019-02-28T07:41:26.211Z,97730.22
2019-02-28T07:43:51.741Z,97728.88
2019-02-28T07:46:20.006Z,97716.38
2019-02-28T07:48:48.277Z,97711.81
2019-02-28T07:51:18.536Z,97713.31
2019-02-28T07:53:46.533Z,97717.27
2019-02-28T07:56:14.799Z,97724.31
2019-02-28T07:58:43.052Z,97716.10
2019-02-28T08:01:11.337Z,97709.84
2019-02-28T08:03:43.320Z,97711.86
2019-02-28T08:06:09.579Z,97715.53
2019-02-28T08:08:37.858Z,97712.95
2019-02-28T08:11:06.126Z,97698.75
2019-02-28T08:13:34.584Z,97690.02
2019-02-28T08:16:04.404Z,97693.11
2019-02-28T08:18:32.696Z,97696.52
2019-02-28T08:21:00.950Z,97688.47
2019-02-28T08:23:30.230Z,97681.48
2019-02-28T08:25:59.218Z,97685.41
2019-02-28T08:28:29.558Z,97671.38
2019-02-28T08:30:57.486Z,97660.63
2019-02-28T08:33:25.754Z,97654.48
2019-02-28T08:35:54.041Z,97664.77
2019-02-28T08:38:22.317Z,97658.91
2019-02-28T08:40:51.589Z,97666.34
2019-02-28T08:43:26.887Z,97656.19
2019-02-28T08:45:49.931Z,97652.13
2019-02-28T08:48:18.184Z,97650.55
2019-02-28T08:50:46.472Z,97650.60
2019-02-28T08:53:15.528Z,97647.25
2019-02-28T08:55:44.656Z,97639.80
2019-02-28T08:58:12.911Z,97656.89
2019-02-28T09:00:41.267Z,97654.60
2019-02-28T09:03:09.552Z,97646.09
2019-02-28T09:05:37.821Z,97656.76
2019-02-28T09:08:06.105Z,97654.48
2019-02-28T09:10:34.372Z,97642.08
2019-02-28T09:13:07.785Z,97651.41
2019-02-28T09:15:32.646Z,97643.80
2019-02-28T09:18:00.939Z,97643.23
2019-02-28T09:20:29.216Z,97641.24
2019-02-28T09:23:01.518Z,97647.38
2019-02-28T09:25:27.487Z,97639.39
2019-02-28T09:27:55.754Z,97635.27
2019-02-28T09:30:39.255Z,97630.70
2019-02-28T09:33:07.519Z,97614.41
2019-02-28T09:35:35.782Z,97626.70
2019-02-28T09:38:07.629Z,97629.03
2019-02-28T09:40:34.104Z,97618.22
2019-02-28T09:43:02.402Z,97617.06
2019-02-28T09:45:31.705Z,97617.66
2019-02-28T09:48:02.015Z,97621.65
2019-02-28T09:50:29.985Z,97612.25
2019-02-28T09:52:58.247Z,97612.39
2019-02-28T09:55:26.544Z,97611.59
2019-02-28T09:57:55.127Z,97621.30
2019-02-28T10:00:24.878Z,97617.87
2019-02-28T10:02:53.217Z,97629.00
2019-02-28T10:05:21.500Z,97620.95
2019-02-28T10:07:49.789Z,97619.31
2019-02-28T10:10:32.509Z,97618.12
2019-02-28T10:13:00.799Z,97607.31
2019-02-28T10:15:29.055Z,97602.29
2019-02-28T10:17:57.337Z,97604.08
2019-02-28T10:20:28.698Z,97601.06
2019-02-28T10:22:57.093Z,97600.43
2019-02-28T10:25:25.450Z,97597.64
2019-02-28T10:27:54.631Z,97610.11
2019-02-28T10:30:31.738Z,97607.08
2019-02-28T10:32:56.971Z,97597.22
2019-02-28T10:35:25.266Z,97590.33
2019-02-28T10:37:57.382Z,97591.63
2019-02-28T10:40:31.590Z,97584.33
2019-02-28T10:42:59.866Z,97597.28
2019-02-28T10:45:28.200Z,97581.00
2019-02-28T10:47:56.473Z,97579.63
2019-02-28T10:50:32.186Z,97584.28
2019-02-28T10:53:04.042Z,97595.72
2019-02-28T10:55:28.220Z,97592.37
2019-02-28T10:57:56.495Z,97579.94
2019-02-28T11:00:32.926Z,97578.50
2019-02-28T11:03:01.946Z,97584.65
2019-02-28T11:05:32.730Z,97579.39
2019-02-28T11:08:01.551Z,97562.70
2019-02-28T11:10:34.784Z,97549.80
2019-02-28T11:13:01.442Z,97549.56
2019-02-28T11:15:30.381Z,97559.89
2019-02-28T11:17:58.669Z,97557.55
2019-02-28T11:20:27.151Z,97546.09
2019-02-28T11:22:55.465Z,97545.95
2019-02-28T11:25:25.458Z,97543.77
2019-02-28T11:27:54.584Z,97549.63
2019-02-28T11:30:25.682Z,97540.56
2019-02-28T11:32:53.970Z,97527.78
2019-02-28T11:35:23.232Z,97531.44
2019-02-28T11:37:52.194Z,97523.31
2019-02-28T11:40:22.587Z,97525.11
2019-02-28T11:42:50.837Z,97527.49
2019-02-28T11:45:25.537Z,97543.70
2019-02-28T11:47:55.485Z,97532.19
2019-02-28T11:50:23.771Z,97530.88
2019-02-28T11:52:52.030Z,97536.31
2019-02-28T11:55:21.288Z,97532.53
2019-02-28T11:57:49.906Z,97526.65
2019-02-28T12:00:27.367Z,97532.03
2019-02-28T12:02:59.704Z,97538.97
2019-02-28T12:05:25.861Z,97533.42
2019-02-28T12:07:54.151Z,97543.48
2019-02-28T12:10:22.442Z,97539.49
2019-02-28T12:12:51.016Z,97538.53
2019-02-28T12:15:22.695Z,97537.27
2019-02-28T12:17:51.053Z,97534.69
2019-02-28T12:20:19.308Z,97538.64
2019-02-28T12:22:49.326Z,97540.78
2019-02-28T12:25:21.394Z,97525.08
2019-02-28T12:27:49.663Z,97523.34
2019-02-28T12:30:25.191Z,97523.94
2019-02-28T12:32:53.664Z,97515.03
2019-02-28T12:35:21.927Z,97518.98
2019-02-28T12:37:50.196Z,97524.17
2019-02-28T12:40:24.971Z,97532.41
2019-02-28T12:42:53.263Z,97517.35
2019-02-28T12:45:27.478Z,97514.91
2019-02-28T12:47:55.759Z,97515.00
2019-02-28T12:50:24.020Z,97507.58
2019-02-28T12:52:52.349Z,97508.44
2019-02-28T12:55:21.650Z,97509.13
2019-02-28T12:57:51.612Z,97502.08
2019-02-28T13:00:31.579Z,97510.17
2019-02-28T13:02:59.903Z,97517.94
2019-02-28T13:05:28.176Z,97507.68
2019-02-28T13:07:57.011Z,97508.78
2019-02-28T13:10:28.101Z,97508.46
2019-02-28T13:13:05.529Z,97509.48
2019-02-28T13:15:25.572Z,97503.00
2019-02-28T13:17:53.836Z,97511.47
2019-02-28T13:20:32.208Z,97510.10
2019-02-28T13:22:59.482Z,97507.55
2019-02-28T13:25:27.604Z,97506.53
2019-02-28T13:27:55.899Z,97511.54
2019-02-28T13:30:26.296Z,97505.72
2019-02-28T13:32:54.652Z,97503.97
2019-02-28T13:35:31.629Z,97498.44
2019-02-28T13:37:59.933Z,97497.73
2019-02-28T13:40:28.199Z,97492.55
2019-02-28T13:42:56.484Z,97492.77
2019-02-28T13:45:25.513Z,97495.98
2019-02-28T13:47:53.780Z,97487.80
2019-02-28T13:50:32.514Z,97491.33
2019-02-28T13:53:03.339Z,97474.06
2019-02-28T13:55:31.150Z,97485.08
2019-02-28T13:57:59.424Z,97486.24
2019-02-28T14:00:29.608Z,97478.63
2019-02-28T14:03:09.493Z,97481.88
2019-02-28T14:05:40.997Z,97480.93
2019-02-28T14:08:10.972Z,97485.40
2019-02-28T14:10:38.816Z,97483.91
2019-02-28T14:13:07.348Z,97479.45
2019-02-28T14:15:41.642Z,97471.38
2019-02-28T14:18:10.881Z,97469.41
2019-02-28T14:20:39.851Z,97486.27
2019-02-28T14:23:08.114Z,97475.26
2019-02-28T14:25:39.721Z,97482.02
2019-02-28T14:28:06.385Z,97486.57
2019-02-28T14:30:34.659Z,97493.33
2019-02-28T14:33:02.939Z,97487.59
2019-02-28T14:35:38.317Z,97483.22
2019-02-28T14:38:11.732Z,97481.44
2019-02-28T14:40:42.136Z,97489.12
2019-02-28T14:43:10.437Z,97496.67
2019-02-28T14:45:46.504Z,97493.75
2019-02-28T14:48:15.381Z,97495.58
2019-02-28T14:50:44.817Z,97495.72
2019-02-28T14:53:17.659Z,97492.27
2019-02-28T14:55:51.140Z,97503.05
2019-02-28T14:58:22.447Z,97511.27
2019-02-28T15:00:51.749Z,97509.13
2019-02-28T15:03:29.187Z,97495.78
2019-02-28T15:05:56.458Z,97488.25
2019-02-28T15:08:24.716Z,97487.59
2019-02-28T15:10:53.279Z,97494.08
2019-02-28T15:13:21.516Z,97491.78
2019-02-28T15:15:53.237Z,97499.16
2019-02-28T15:18:19.789Z,97496.34
2019-02-28T15:20:48.098Z,97495.09
2019-02-28T15:23:16.368Z,97494.54
2019-02-28T15:25:44.628Z,97482.64
2019-02-28T15:28:13.860Z,97485.47
2019-02-28T15:30:42.958Z,97485.33
2019-02-28T15:33:11.238Z,97484.11
2019-02-28T15:35:39.501Z,97488.99
2019-02-28T15:38:09.149Z,97491.83
2019-02-28T15:40:43.692Z,97490.22
2019-02-28T15:43:17.190Z,97484.03
2019-02-28T15:45:42.028Z,97491.89
2019-02-28T15:48:10.289Z,97495.04
2019-02-28T15:50:38.546Z,97494.75
2019-02-28T15:53:07.769Z,97497.77
2019-02-28T15:55:36.580Z,97506.02
2019-02-28T15:58:05.863Z,97507.89
2019-02-28T16:00:36.210Z,97505.17
2019-02-28T16:03:04.651Z,97507.14
2019-02-28T16:05:32.938Z,97509.98
2019-02-28T16:08:01.219Z,97512.28
2019-02-28T16:10:31.922Z,97509.50
2019-02-28T16:13:01.099Z,97515.40
2019-02-28T16:15:29.404Z,97514.65
2019-02-28T16:17:57.668Z,97511.89
2019-02-28T16:20:28.694Z,97516.62
2019-02-28T16:22:56.787Z,97521.95
2019-02-28T16:25:31.034Z,97526.92
2019-02-28T16:27:59.329Z,97531.05
2019-02-28T16:30:28.759Z,97531.64
2019-02-28T16:32:57.618Z,97534.49
2019-02-28T16:35:25.982Z,97535.83
2019-02-28T16:37:54.257Z,97527.27
2019-02-28T16:40:27.740Z,97536.06
2019-02-28T16:42:56.020Z,97538.84
2019-02-28T16:45:33.406Z,97548.50
2019-02-28T16:48:03.354Z,97553.83
2019-02-28T16:50:31.649Z,97545.92
2019-02-28T16:52:59.942Z,97542.29
2019-02-28T16:55:31.026Z,97551.27
2019-02-28T16:57:58.249Z,97550.61
2019-02-28T17:00:26.569Z,97559.30
2019-02-28T17:02:54.870Z,97564.23
2019-02-28T17:05:26.615Z,97566.95
2019-02-28T17:07:53.237Z,97579.48
2019-02-28T17:10:23.802Z,97581.01
2019-02-28T17:13:09.849Z,97585.52
2019-02-28T17:15:39.788Z,97589.00
2019-02-28T17:20:40.627Z,97600.37
2019-02-28T17:23:07.675Z,97600.50
2019-02-28T17:25:35.940Z,97600.89
2019-02-28T17:28:08.811Z,97591.83
2019-02-28T17:30:47.760Z,97597.00
2019-02-28T17:33:16.126Z,97589.11
2019-02-28T17:35:44.383Z,97581.45
2019-02-28T17:38:12.671Z,97585.95
2019-02-28T17:40:40.960Z,97593.15
2019-02-28T17:43:09.262Z,97594.26
2019-02-28T17:45:37.512Z,97591.02
2019-02-28T17:48:27.190Z,97596.44
2019-02-28T17:51:09.198Z,97597.30
2019-02-28T17:53:59.013Z,97602.33
2019-02-28T17:56:37.550Z,97597.97
2019-02-28T17:59:17.264Z,97602.70
2019-02-28T18:02:11.909Z,97609.09
2019-02-28T18:05:13.954Z,97612.30
2019-02-28T18:08:08.434Z,97607.95
2019-02-28T18:11:11.871Z,97628.48
2019-02-28T18:13:55.314Z,97620.40
2019-02-28T18:16:47.167Z,97623.63
2019-02-28T18:19:38.431Z,97628.44
2019-02-28T18:22:16.034Z,97634.12
2019-02-28T18:25:01.356Z,97634.23
2019-02-28T18:27:43.734Z,97632.15
2019-02-28T18:30:30.406Z,97631.47
2019-02-28T18:32:58.692Z,97631.59
2019-02-28T18:35:29.131Z,97622.84
2019-02-28T18:37:57.429Z,97625.86
2019-02-28T18:40:26.934Z,97625.78
2019-02-28T18:42:55.235Z,97616.48
2019-02-28T18:45:23.760Z,97624.33
2019-02-28T18:47:52.352Z,97625.50
2019-02-28T18:50:20.644Z,97629.17
2019-02-28T18:52:48.900Z,97617.90
2019-02-28T18:55:17.157Z,97628.61
2019-02-28T18:57:45.455Z,97636.53
2019-02-28T19:00:16.602Z,97637.23
2019-02-28T19:02:44.920Z,97644.97
2019-02-28T19:05:13.198Z,97646.36
2019-02-28T19:07:41.455Z,97642.63
2019-02-28T19:10:10.393Z,97648.52
2019-02-28T19:12:38.670Z,97649.94
2019-02-28T19:15:16.093Z,97640.92
2019-02-28T19:17:44.390Z,97651.88
2019-02-28T19:20:14.290Z,97654.52
2019-02-28T19:22:42.575Z,97652.91
2019-02-28T19:25:14.215Z,97653.27
2019-02-28T19:27:42.507Z,97651.06
2019-02-28T19:30:13.860Z,97657.20
2019-02-28T19:32:42.174Z,97659.59
2019-02-28T19:35:10.454Z,97661.33
2019-02-28T19:37:38.699Z,97665.38
2019-02-28T19:40:09.729Z,97663.05
2019-02-28T19:42:37.993Z,97657.55
2019-02-28T19:45:20.945Z,97657.98
2019-02-28T19:47:49.194Z,97658.92
2019-02-28T19:50:17.466Z,97661.89
2019-02-28T19:52:45.744Z,97667.92
2019-02-28T19:55:15.179Z,97665.13
2019-02-28T19:57:43.452Z,97663.88
2019-02-28T20:00:17.350Z,97674.92
2019-02-28T20:02:45.694Z,97678.30
2019-02-28T20:05:14.024Z,97677.80
2019-02-28T20:07:42.320Z,97670.42
2019-02-28T20:10:15.896Z,97674.83
2019-02-28T20:12:44.187Z,97675.30
2019-02-28T20:15:15.384Z,97679.20
2019-02-28T20:17:43.672Z,97673.67
2019-02-28T20:20:14.808Z,97682.45
2019-02-28T20:22:43.106Z,97681.97
2019-02-28T20:25:13.015Z,97688.22
2019-02-28T20:27:41.285Z,97686.44
2019-02-28T20:30:17.816Z,97690.17
2019-02-28T20:32:46.076Z,97691.33
2019-02-28T20:35:15.734Z,97696.97
2019-02-28T20:37:43.993Z,97695.78
2019-02-28T20:40:20.644Z,97697.98
2019-02-28T20:42:48.908Z,97700.30
2019-02-28T20:45:17.195Z,97703.97
2019-02-28T20:47:45.462Z,97712.66
2019-02-28T20:50:19.744Z,97709.86
2019-02-28T20:52:48.008Z,97714.09
2019-02-28T20:55:16.298Z,97720.44
2019-02-28T20:57:44.577Z,97708.50
2019-02-28T21:00:17.248Z,97714.95
2019-02-28T21:02:45.542Z,97709.31
2019-02-28T21:05:16.585Z,97709.64
2019-02-28T21:07:44.882Z,97715.30
2019-02-28T21:10:13.145Z,97709.88
2019-02-28T21:12:41.437Z,97710.12
2019-02-28T21:15:11.444Z,97709.64
2019-02-28T21:17:47.532Z,97702.61
2019-02-28T21:20:16.726Z,97704.58
2019-02-28T21:22:44.994Z,97710.81
2019-02-28T21:25:18.193Z,97709.38
2019-02-28T21:27:46.461Z,97702.66
2019-02-28T21:30:19.563Z,97700.30
2019-02-28T21:32:47.833Z,97705.69
2019-02-28T21:35:17.035Z,97705.30
2019-02-28T21:37:46.435Z,97711.64
2019-02-28T21:40:18.944Z,97708.55
2019-02-28T21:42:47.210Z,97708.67
2019-02-28T21:45:17.520Z,97703.88
2019-02-28T21:47:45.791Z,97711.38
2019-02-28T21:50:15.803Z,97704.61
2019-02-28T21:52:44.061Z,97698.35
2019-02-28T21:55:13.979Z,97689.38
2019-02-28T21:57:42.271Z,97697.99
2019-02-28T22:00:16.245Z,97695.53
2019-02-28T22:02:44.523Z,97699.73
2019-02-28T22:05:13.651Z,97702.37
2019-02-28T22:07:42.021Z,97697.00
2019-02-28T22:10:12.675Z,97701.64
2019-02-28T22:12:40.927Z,97704.31
2019-02-28T22:15:11.734Z,97707.33
2019-02-28T22:17:40.160Z,97714.20
2019-02-28T22:20:10.589Z,97723.78
2019-02-28T22:22:38.845Z,97717.98
2019-02-28T22:25:09.386Z,97724.24
2019-02-28T22:27:37.645Z,97730.08
2019-02-28T22:30:16.630Z,97739.27
2019-02-28T22:32:46.689Z,97740.91
2019-02-28T22:35:16.827Z,97731.07
2019-02-28T22:37:45.127Z,97741.11
2019-02-28T22:40:13.389Z,97743.77
2019-02-28T22:42:41.509Z,97747.07
2019-02-28T22:45:09.774Z,97746.88
2019-02-28T22:47:38.064Z,97745.31
2019-02-28T22:50:08.465Z,97748.34
2019-02-28T22:52:36.759Z,97755.45
2019-02-28T22:55:07.362Z,97763.66
2019-02-28T22:57:35.656Z,97765.30
2019-02-28T23:00:05.550Z,97769.31
2019-02-28T23:02:33.878Z,97767.84
2019-02-28T23:05:02.131Z,97753.88
2019-02-28T23:07:30.394Z,97764.42
2019-02-28T23:10:00.716Z,97758.55
2019-02-28T23:12:28.981Z,97762.85
2019-02-28T23:14:57.270Z,97764.48
2019-02-28T23:17:25.535Z,97766.36
2019-02-28T23:19:53.804Z,97767.73
2019-02-28T23:22:23.198Z,97767.74
2019-02-28T23:24:51.489Z,97763.98
2019-02-28T23:27:19.794Z,97767.24
2019-02-28T23:29:51.280Z,97764.12
2019-02-28T23:32:34.903Z,97760.03
2019-02-28T23:35:04.034Z,97764.84
2019-02-28T23:37:32.324Z,97768.66
2019-02-28T23:40:00.582Z,97764.59
2019-02-28T23:42:28.875Z,97764.46
2019-02-28T23:44:57.132Z,97765.84
2019-02-28T23:47:25.389Z,97770.27
2019-02-28T23:49:53.655Z,97769.25
2019-02-28T23:52:21.917Z,97763.91
2019-02-28T23:54:50.203Z,97768.63
2019-02-28T23:57:18.466Z,97762.27
2019-02-28T23:59:46.746Z,97763.66
